createdAt,value
2018-03-31T00:01:18.937Z,30.00
2018-03-31T00:03:46.061Z,29.07
2018-03-31T00:06:13.078Z,28.87
2018-03-31T00:08:40.095Z,30.67
2018-03-31T00:11:07.121Z,30.50
2018-03-31T00:13:34.148Z,29.07
2018-03-31T00:16:01.193Z,29.37
2018-03-31T00:18:28.202Z,29.97
2018-03-31T00:20:55.205Z,30.10
2018-03-31T00:23:22.211Z,32.07
2018-03-31T00:25:49.231Z,30.70
2018-03-31T00:28:16.364Z,31.13
2018-03-31T00:30:44.168Z,30.43
2018-03-31T00:33:11.184Z,31.47
2018-03-31T00:35:38.971Z,33.00
2018-03-31T00:38:05.988Z,31.33
2018-03-31T00:40:33.112Z,32.23
2018-03-31T00:43:00.121Z,29.90
2018-03-31T00:45:27.892Z,33.07
2018-03-31T00:47:55.664Z,30.27
2018-03-31T00:50:23.433Z,32.20
2018-03-31T00:52:51.228Z,31.23
2018-03-31T00:55:18.237Z,28.80
2018-03-31T00:57:45.364Z,29.63
2018-03-31T01:00:12.387Z,29.40
2018-03-31T01:02:39.435Z,29.57
2018-03-31T01:05:06.451Z,29.17
2018-03-31T01:07:34.229Z,28.50
2018-03-31T01:10:02.032Z,31.23
2018-03-31T01:12:29.045Z,29.33
2018-03-31T01:14:56.827Z,27.83
2018-03-31T01:17:23.844Z,26.60
2018-03-31T01:19:50.853Z,25.47
2018-03-31T01:22:17.904Z,25.63
2018-03-31T01:24:44.914Z,25.10
2018-03-31T01:27:11.921Z,24.50
2018-03-31T01:29:38.930Z,24.33
2018-03-31T01:32:06.705Z,24.00
2018-03-31T01:34:34.501Z,22.90
2018-03-31T01:37:01.514Z,22.77
2018-03-31T01:39:29.296Z,23.63
2018-03-31T01:41:56.304Z,22.67
2018-03-31T01:44:23.329Z,21.50
2018-03-31T01:46:50.352Z,22.90
2018-03-31T01:49:17.389Z,22.93
2018-03-31T01:51:45.180Z,22.77
2018-03-31T01:54:12.217Z,21.53
2018-03-31T01:56:40.001Z,21.93
2018-03-31T01:59:07.016Z,22.17
2018-03-31T02:01:34.041Z,20.60
2018-03-31T02:04:01.076Z,21.77
2018-03-31T02:06:28.131Z,19.93
2018-03-31T02:08:55.114Z,20.43
2018-03-31T02:11:22.146Z,21.50
2018-03-31T02:13:49.151Z,20.30
2018-03-31T02:16:16.924Z,20.50
2018-03-31T02:18:43.933Z,21.17
2018-03-31T02:21:11.064Z,20.90
2018-03-31T02:23:38.085Z,20.50
2018-03-31T02:26:05.091Z,19.60
2018-03-31T02:28:32.116Z,21.70
2018-03-31T02:30:59.132Z,21.17
2018-03-31T02:33:27.012Z,20.03
2018-03-31T02:35:54.041Z,21.53
2018-03-31T02:38:21.853Z,20.60
2018-03-31T02:40:48.869Z,21.73
2018-03-31T02:43:16.659Z,21.87
2018-03-31T02:45:43.670Z,20.73
2018-03-31T02:48:10.686Z,21.33
2018-03-31T02:50:37.732Z,21.83
2018-03-31T02:53:04.751Z,21.77
2018-03-31T02:55:32.530Z,20.63
2018-03-31T02:57:59.552Z,21.70
2018-03-31T03:00:26.573Z,20.10
2018-03-31T03:02:53.581Z,21.97
2018-03-31T03:05:20.594Z,21.63
2018-03-31T03:07:47.614Z,21.33
2018-03-31T03:10:14.648Z,20.77
2018-03-31T03:12:41.687Z,20.30
2018-03-31T03:15:09.495Z,20.77
2018-03-31T03:17:36.509Z,19.00
2018-03-31T03:20:03.519Z,19.50
2018-03-31T03:22:30.547Z,18.57
2018-03-31T03:24:57.694Z,19.67
2018-03-31T03:27:24.709Z,19.53
2018-03-31T03:29:52.497Z,18.40
2018-03-31T03:32:19.506Z,18.30
2018-03-31T03:34:46.513Z,20.13
2018-03-31T03:37:13.637Z,18.70
2018-03-31T03:39:41.413Z,17.73
2018-03-31T03:42:08.437Z,19.17
2018-03-31T03:44:35.445Z,18.30
2018-03-31T03:47:02.453Z,19.70
2018-03-31T03:49:30.236Z,18.00
2018-03-31T03:51:58.018Z,18.10
2018-03-31T03:54:25.147Z,18.37
2018-03-31T03:56:52.945Z,18.70
2018-03-31T03:59:19.973Z,18.17
2018-03-31T04:01:47.749Z,18.80
2018-03-31T04:04:15.526Z,18.00
2018-03-31T04:06:42.529Z,18.27
2018-03-31T04:09:09.553Z,18.07
2018-03-31T04:11:36.690Z,18.00
2018-03-31T04:14:03.705Z,17.63
2018-03-31T04:16:30.705Z,18.10
2018-03-31T04:18:57.716Z,17.33
2018-03-31T04:21:25.498Z,17.50
2018-03-31T04:23:53.288Z,16.67
2018-03-31T04:26:20.301Z,16.37
2018-03-31T04:28:47.429Z,16.40
2018-03-31T04:31:14.454Z,17.43
2018-03-31T04:33:41.456Z,16.67
2018-03-31T04:36:08.459Z,16.87
2018-03-31T04:38:35.500Z,16.40
2018-03-31T04:41:02.635Z,17.13
2018-03-31T04:43:30.407Z,15.77
2018-03-31T04:45:57.418Z,17.33
2018-03-31T04:48:24.495Z,17.13
2018-03-31T04:50:51.473Z,17.30
2018-03-31T04:53:18.488Z,16.80
2018-03-31T04:55:45.526Z,16.20
2018-03-31T04:58:12.633Z,16.63
2018-03-31T05:00:40.372Z,16.50
2018-03-31T05:03:08.152Z,17.83
2018-03-31T05:05:35.207Z,16.30
2018-03-31T05:08:02.240Z,17.13
2018-03-31T05:10:30.035Z,16.37
2018-03-31T05:12:57.052Z,16.53
2018-03-31T05:15:24.076Z,16.27
2018-03-31T05:17:51.113Z,17.13
2018-03-31T05:20:18.134Z,15.83
2018-03-31T05:22:45.942Z,15.70
2018-03-31T05:25:12.982Z,16.40
2018-03-31T05:27:39.984Z,16.23
2018-03-31T05:30:07.027Z,15.77
2018-03-31T05:32:34.036Z,16.43
2018-03-31T05:35:01.087Z,15.80
2018-03-31T05:37:28.106Z,15.97
2018-03-31T05:39:55.884Z,15.33
2018-03-31T05:42:22.901Z,16.20
2018-03-31T05:44:49.925Z,15.17
2018-03-31T05:47:16.970Z,16.67
2018-03-31T05:49:44.080Z,15.57
2018-03-31T05:52:11.048Z,15.17
2018-03-31T05:54:38.081Z,14.70
2018-03-31T05:57:05.869Z,15.53
2018-03-31T05:59:33.028Z,16.50
2018-03-31T06:02:00.050Z,17.30
2018-03-31T06:04:27.840Z,15.43
2018-03-31T06:06:55.627Z,16.27
2018-03-31T06:09:22.705Z,16.00
2018-03-31T06:11:49.901Z,15.63
2018-03-31T06:14:17.704Z,16.87
2018-03-31T06:16:44.739Z,15.87
2018-03-31T06:19:12.518Z,17.60
2018-03-31T06:21:39.590Z,17.60
2018-03-31T06:24:06.649Z,17.50
2018-03-31T06:26:33.674Z,17.23
2018-03-31T06:29:00.681Z,16.57
2018-03-31T06:31:28.467Z,17.17
2018-03-31T06:33:55.525Z,17.07
2018-03-31T06:36:23.328Z,17.27
2018-03-31T06:38:50.355Z,17.53
2018-03-31T06:41:18.133Z,18.80
2018-03-31T06:43:45.145Z,19.23
2018-03-31T06:46:12.187Z,17.40
2018-03-31T06:48:39.334Z,19.53
2018-03-31T06:51:06.383Z,18.20
2018-03-31T06:53:33.398Z,17.87
2018-03-31T06:56:00.407Z,18.23
2018-03-31T06:58:27.424Z,19.23
2018-03-31T07:00:54.453Z,19.27
2018-03-31T07:03:21.495Z,18.07
2018-03-31T07:05:49.318Z,19.43
2018-03-31T07:08:16.337Z,22.70
2018-03-31T07:10:43.387Z,22.10
2018-03-31T07:13:10.422Z,20.57
2018-03-31T07:15:38.211Z,24.00
2018-03-31T07:18:05.374Z,25.07
2018-03-31T07:20:32.409Z,24.77
2018-03-31T07:22:59.438Z,27.20
2018-03-31T07:25:27.266Z,32.20
2018-03-31T07:27:54.327Z,31.17
2018-03-31T07:30:21.463Z,23.13
2018-03-31T07:32:48.499Z,22.23
2018-03-31T07:35:15.520Z,20.77
2018-03-31T07:37:43.301Z,19.70
2018-03-31T07:40:11.085Z,18.87
2018-03-31T07:42:38.119Z,22.03
2018-03-31T07:45:05.912Z,23.50
2018-03-31T07:47:32.961Z,23.87
2018-03-31T07:50:00.010Z,23.17
2018-03-31T07:52:27.039Z,22.70
2018-03-31T07:54:54.833Z,22.03
2018-03-31T07:57:21.853Z,23.67
2018-03-31T07:59:49.639Z,23.03
2018-03-31T08:02:17.445Z,22.80
2018-03-31T08:04:44.494Z,23.20
2018-03-31T08:07:11.513Z,22.17
2018-03-31T08:09:39.309Z,22.80
2018-03-31T08:12:06.320Z,21.77
2018-03-31T08:14:34.108Z,24.07
2018-03-31T08:17:01.179Z,23.93
2018-03-31T08:19:28.215Z,22.70
2018-03-31T08:21:55.248Z,22.50
2018-03-31T08:24:23.024Z,20.93
2018-03-31T08:26:50.842Z,20.90
2018-03-31T08:29:17.865Z,20.50
2018-03-31T08:31:44.889Z,19.97
2018-03-31T08:34:12.716Z,23.13
2018-03-31T08:36:39.735Z,22.43
2018-03-31T08:39:06.784Z,21.23
2018-03-31T08:41:33.808Z,22.47
2018-03-31T08:44:01.600Z,20.90
2018-03-31T08:46:28.805Z,17.30
2018-03-31T08:48:55.814Z,18.00
2018-03-31T08:51:22.830Z,15.70
2018-03-31T08:53:49.867Z,14.97
2018-03-31T08:56:16.930Z,15.87
2018-03-31T08:58:44.081Z,14.57
2018-03-31T09:01:11.150Z,14.03
2018-03-31T09:03:38.944Z,13.57
2018-03-31T09:06:05.953Z,14.33
2018-03-31T09:08:32.974Z,12.33
2018-03-31T09:11:00.116Z,12.87
2018-03-31T09:13:27.136Z,13.00
2018-03-31T09:15:54.988Z,12.57
2018-03-31T09:18:21.973Z,15.57
2018-03-31T09:20:48.998Z,16.50
2018-03-31T09:23:16.084Z,12.97
2018-03-31T09:25:43.107Z,13.07
2018-03-31T09:28:10.159Z,12.77
2018-03-31T09:30:37.181Z,14.13
2018-03-31T09:33:04.215Z,13.97
2018-03-31T09:35:31.361Z,12.70
2018-03-31T09:37:58.402Z,13.47
2018-03-31T09:40:25.436Z,12.03
2018-03-31T09:42:53.231Z,11.80
2018-03-31T09:45:20.257Z,11.67
2018-03-31T09:47:48.174Z,11.10
2018-03-31T09:50:15.198Z,11.37
2018-03-31T09:52:42.228Z,11.07
2018-03-31T09:55:10.013Z,10.50
2018-03-31T09:57:37.074Z,10.20
2018-03-31T10:00:04.095Z,9.67
2018-03-31T10:02:31.887Z,10.20
2018-03-31T10:04:58.940Z,8.93
2018-03-31T10:07:25.977Z,7.93
2018-03-31T10:09:53.762Z,8.77
2018-03-31T10:12:20.808Z,8.27
2018-03-31T10:14:47.846Z,7.63
2018-03-31T10:17:15.644Z,7.87
2018-03-31T10:19:42.699Z,8.87
2018-03-31T10:22:09.731Z,8.60
2018-03-31T10:24:37.530Z,9.07
2018-03-31T10:27:04.552Z,9.10
2018-03-31T10:29:32.337Z,8.70
2018-03-31T10:31:59.356Z,8.20
2018-03-31T10:34:27.261Z,6.50
2018-03-31T10:36:54.295Z,7.77
2018-03-31T10:39:21.314Z,8.00
2018-03-31T10:41:48.344Z,8.93
2018-03-31T10:44:15.373Z,8.07
2018-03-31T10:46:42.424Z,7.60
2018-03-31T10:49:09.465Z,6.80
2018-03-31T10:51:36.488Z,7.03
2018-03-31T10:54:03.517Z,7.80
2018-03-31T10:56:30.541Z,7.70
2018-03-31T10:58:57.597Z,7.90
2018-03-31T11:01:24.664Z,8.30
2018-03-31T11:03:51.690Z,7.77
2018-03-31T11:06:18.715Z,7.43
2018-03-31T11:08:46.504Z,6.77
2018-03-31T11:11:13.535Z,7.30
2018-03-31T11:13:41.329Z,7.53
2018-03-31T11:16:08.382Z,7.00
2018-03-31T11:18:35.418Z,6.97
2018-03-31T11:21:03.217Z,8.60
2018-03-31T11:23:30.232Z,8.90
2018-03-31T11:25:58.057Z,10.50
2018-03-31T11:28:25.082Z,9.50
2018-03-31T11:30:52.109Z,8.70
2018-03-31T11:33:19.923Z,8.83
2018-03-31T11:35:46.954Z,9.60
2018-03-31T11:38:14.054Z,8.53
2018-03-31T11:40:41.116Z,8.70
2018-03-31T11:43:08.172Z,9.40
2018-03-31T11:45:35.987Z,8.33
2018-03-31T11:48:03.013Z,8.97
2018-03-31T11:50:30.114Z,8.93
2018-03-31T11:52:57.127Z,9.30
2018-03-31T11:55:24.180Z,9.57
2018-03-31T11:57:51.211Z,9.20
2018-03-31T12:00:18.249Z,10.10
2018-03-31T12:02:45.269Z,9.00
2018-03-31T12:05:12.297Z,10.13
2018-03-31T12:07:39.453Z,9.30
2018-03-31T12:10:06.483Z,9.70
2018-03-31T12:12:34.285Z,9.57
2018-03-31T12:15:01.301Z,8.83
2018-03-31T12:17:29.191Z,8.60
2018-03-31T12:19:56.239Z,8.93
2018-03-31T12:22:23.260Z,9.50
2018-03-31T12:24:51.067Z,8.00
2018-03-31T12:27:18.098Z,9.13
2018-03-31T12:29:45.912Z,8.20
2018-03-31T12:32:12.954Z,7.87
2018-03-31T12:34:40.022Z,8.37
2018-03-31T12:37:07.083Z,8.07
2018-03-31T12:39:34.115Z,8.90
2018-03-31T12:42:01.204Z,7.27
2018-03-31T12:44:28.223Z,9.23
2018-03-31T12:46:55.253Z,10.80
2018-03-31T12:49:22.319Z,10.03
2018-03-31T12:51:49.360Z,9.13
2018-03-31T12:54:16.398Z,10.17
2018-03-31T12:56:43.435Z,10.77
2018-03-31T12:59:11.218Z,10.67
2018-03-31T13:01:39.154Z,9.43
2018-03-31T13:04:06.181Z,9.37
2018-03-31T13:06:33.285Z,8.20
2018-03-31T13:09:01.074Z,8.77
2018-03-31T13:11:28.172Z,8.83
2018-03-31T13:13:55.264Z,9.57
2018-03-31T13:16:23.053Z,7.37
2018-03-31T13:18:50.086Z,8.13
2018-03-31T13:21:17.864Z,4.67
2018-03-31T13:23:44.919Z,5.50
2018-03-31T13:26:11.977Z,5.93
2018-03-31T13:28:39.067Z,5.47
2018-03-31T13:31:06.084Z,5.83
2018-03-31T13:33:33.113Z,5.30
2018-03-31T13:36:01.037Z,5.37
2018-03-31T13:38:28.075Z,5.60
2018-03-31T13:40:55.178Z,6.40
2018-03-31T13:43:22.494Z,5.57
2018-03-31T13:45:49.989Z,5.10
2018-03-31T13:48:17.069Z,5.13
2018-03-31T13:50:44.858Z,4.07
2018-03-31T13:53:11.898Z,4.73
2018-03-31T13:55:39.335Z,3.80
2018-03-31T13:58:06.680Z,4.30
2018-03-31T14:00:35.399Z,4.40
2018-03-31T14:03:04.467Z,4.80
2018-03-31T14:05:31.623Z,4.97
2018-03-31T14:07:58.696Z,5.20
2018-03-31T14:10:26.490Z,5.93
2018-03-31T14:12:54.404Z,6.17
2018-03-31T14:15:21.432Z,6.97
2018-03-31T14:17:48.703Z,8.43
2018-03-31T14:20:15.777Z,9.10
2018-03-31T14:22:43.279Z,6.73
2018-03-31T14:25:10.560Z,6.60
2018-03-31T14:27:37.632Z,6.80
2018-03-31T14:30:05.118Z,6.17
2018-03-31T14:32:32.939Z,6.10
2018-03-31T14:34:59.962Z,6.27
2018-03-31T14:37:27.768Z,4.97
2018-03-31T14:39:54.839Z,5.43
2018-03-31T14:42:21.924Z,4.87
2018-03-31T14:44:49.813Z,5.40
2018-03-31T14:47:18.072Z,4.70
2018-03-31T14:49:45.504Z,3.70
2018-03-31T14:52:13.673Z,3.73
2018-03-31T14:54:41.161Z,3.47
2018-03-31T14:57:09.014Z,4.30
2018-03-31T14:59:36.159Z,4.67
2018-03-31T15:02:03.274Z,5.30
2018-03-31T15:04:31.125Z,6.27
2018-03-31T15:06:58.227Z,6.63
2018-03-31T15:09:25.698Z,7.50
2018-03-31T15:11:52.766Z,7.73
2018-03-31T15:14:19.825Z,9.07
2018-03-31T15:16:46.973Z,9.70
2018-03-31T15:19:14.068Z,9.83
2018-03-31T15:21:41.987Z,10.30
2018-03-31T15:24:09.079Z,11.70
2018-03-31T15:26:36.133Z,11.67
2018-03-31T15:29:03.345Z,12.33
2018-03-31T15:31:30.455Z,11.43
2018-03-31T15:33:58.278Z,12.23
2018-03-31T15:36:25.349Z,12.30
2018-03-31T15:38:52.419Z,15.27
2018-03-31T15:41:20.457Z,15.67
2018-03-31T15:43:47.570Z,15.37
2018-03-31T15:46:15.368Z,15.50
2018-03-31T15:48:42.446Z,14.30
2018-03-31T15:51:09.676Z,13.50
2018-03-31T15:53:36.700Z,13.67
2018-03-31T15:56:04.522Z,14.20
2018-03-31T15:58:31.580Z,14.83
2018-03-31T16:00:59.457Z,14.90
2018-03-31T16:03:26.511Z,18.23
2018-03-31T16:05:53.581Z,22.40
2018-03-31T16:08:20.629Z,25.47
2018-03-31T16:10:47.668Z,28.23
2018-03-31T16:13:14.713Z,25.87
2018-03-31T16:15:41.751Z,25.80
2018-03-31T16:18:08.782Z,24.50
2018-03-31T16:20:35.849Z,25.50
2018-03-31T16:23:02.883Z,20.30
2018-03-31T16:25:29.957Z,17.30
2018-03-31T16:27:57.072Z,17.70
2018-03-31T16:30:24.859Z,16.73
2018-03-31T16:32:52.023Z,11.03
2018-03-31T16:35:19.038Z,10.17
2018-03-31T16:37:46.903Z,10.50
2018-03-31T16:40:14.006Z,7.67
2018-03-31T16:42:41.003Z,7.33
2018-03-31T16:45:08.072Z,5.93
2018-03-31T16:47:35.112Z,6.33
2018-03-31T16:50:02.937Z,6.07
2018-03-31T16:52:29.977Z,5.77
2018-03-31T16:54:57.036Z,8.07
2018-03-31T16:57:24.078Z,7.60
2018-03-31T16:59:51.135Z,6.53
2018-03-31T17:02:18.255Z,6.77
2018-03-31T17:04:46.099Z,33.63
2018-03-31T17:07:13.183Z,36.83
2018-03-31T17:09:40.240Z,17.87
2018-03-31T17:12:08.085Z,12.63
2018-03-31T17:14:35.170Z,8.67
2018-03-31T17:17:02.207Z,7.30
2018-03-31T17:19:30.025Z,9.13
2018-03-31T17:21:57.873Z,8.77
2018-03-31T17:24:25.893Z,9.07
2018-03-31T17:26:52.965Z,9.93
2018-03-31T17:29:20.798Z,11.43
2018-03-31T17:31:47.916Z,9.17
2018-03-31T17:34:14.961Z,11.33
2018-03-31T17:36:42.882Z,11.03
2018-03-31T17:39:09.943Z,10.60
2018-03-31T17:41:36.990Z,10.30
2018-03-31T17:44:04.077Z,8.10
2018-03-31T17:46:31.909Z,8.43
2018-03-31T17:48:59.002Z,8.40
2018-03-31T17:51:26.831Z,7.63
2018-03-31T17:53:53.916Z,7.53
2018-03-31T17:56:21.740Z,7.83
2018-03-31T17:58:48.798Z,7.23
2018-03-31T18:01:15.945Z,6.37
2018-03-31T18:03:42.974Z,6.00
2018-03-31T18:06:10.032Z,5.37
2018-03-31T18:08:37.072Z,4.93
2018-03-31T18:11:04.120Z,5.00
2018-03-31T18:13:32.049Z,5.10
2018-03-31T18:15:59.280Z,6.20
2018-03-31T18:18:26.348Z,6.40
2018-03-31T18:20:53.385Z,5.70
2018-03-31T18:23:20.418Z,6.53
2018-03-31T18:25:47.667Z,6.57
2018-03-31T18:28:14.765Z,6.87
2018-03-31T18:30:41.769Z,7.97
2018-03-31T18:33:09.630Z,10.37
2018-03-31T18:35:37.420Z,8.60
2018-03-31T18:38:04.486Z,8.63
2018-03-31T18:40:31.637Z,8.47
2018-03-31T18:42:58.790Z,9.10
2018-03-31T18:45:25.852Z,9.10
2018-03-31T18:47:52.912Z,9.70
2018-03-31T18:50:20.054Z,9.53
2018-03-31T18:52:47.160Z,9.23
2018-03-31T18:55:14.555Z,9.10
2018-03-31T18:57:41.738Z,9.57
2018-03-31T19:00:08.827Z,9.33
2018-03-31T19:02:35.899Z,10.03
2018-03-31T19:05:03.755Z,9.97
2018-03-31T19:07:31.718Z,10.37
2018-03-31T19:09:58.792Z,9.83
2018-03-31T19:12:26.613Z,9.80
2018-03-31T19:14:53.645Z,9.77
2018-03-31T19:17:20.677Z,10.13
2018-03-31T19:19:48.510Z,9.77
2018-03-31T19:22:15.606Z,9.63
2018-03-31T19:24:48.362Z,8.60
2018-03-31T19:27:15.406Z,8.73
2018-03-31T19:29:42.460Z,8.67
2018-03-31T19:32:09.519Z,9.47
2018-03-31T19:34:36.589Z,9.03
2018-03-31T19:37:04.423Z,7.93
2018-03-31T19:39:37.794Z,9.47
2018-03-31T19:42:04.880Z,10.20
2018-03-31T19:44:31.917Z,12.30
2018-03-31T19:46:59.012Z,15.90
2018-03-31T19:49:26.875Z,16.03
2018-03-31T19:51:54.682Z,19.70
2018-03-31T19:54:21.729Z,20.70
2018-03-31T19:56:48.774Z,19.30
2018-03-31T20:01:50.070Z,19.37
2018-03-31T20:04:17.159Z,17.20
2018-03-31T20:06:44.230Z,15.27
2018-03-31T20:09:12.070Z,14.00
2018-03-31T20:11:39.110Z,15.33
2018-03-31T20:14:06.298Z,14.70
2018-03-31T20:16:34.358Z,15.43
2018-03-31T20:19:01.469Z,15.27
2018-03-31T20:21:29.046Z,15.43
2018-03-31T20:23:56.110Z,17.07
2018-03-31T20:26:23.367Z,20.97
2018-03-31T20:28:50.462Z,24.50
2018-03-31T20:31:18.369Z,24.83
2018-03-31T20:33:45.729Z,24.20
2018-03-31T20:36:12.822Z,25.43
2018-03-31T20:38:40.458Z,24.20
2018-03-31T20:41:07.554Z,24.57
2018-03-31T20:43:34.676Z,23.13
2018-03-31T20:46:01.860Z,22.80
2018-03-31T20:48:28.934Z,21.33
2018-03-31T20:50:57.492Z,20.10
2018-03-31T20:53:24.518Z,20.37
2018-03-31T20:55:51.672Z,20.63
2018-03-31T20:58:18.732Z,19.27
2018-03-31T21:00:45.777Z,19.60
2018-03-31T21:03:12.850Z,20.10
2018-03-31T21:05:39.986Z,20.00
2018-03-31T21:08:07.001Z,22.13
2018-03-31T21:10:34.103Z,22.13
2018-03-31T21:13:01.224Z,21.37
2018-03-31T21:15:28.245Z,23.33
2018-03-31T21:17:56.079Z,23.40
2018-03-31T21:20:23.139Z,23.57
2018-03-31T21:22:50.183Z,24.40
2018-03-31T21:25:17.424Z,23.47
2018-03-31T21:27:44.463Z,38.57
2018-03-31T21:30:11.488Z,41.03
2018-03-31T21:32:39.358Z,45.53
2018-03-31T21:35:07.171Z,43.90
2018-03-31T21:37:34.319Z,48.30
2018-03-31T21:40:01.366Z,54.60
2018-03-31T21:42:28.406Z,69.67
2018-03-31T21:44:55.448Z,74.13
2018-03-31T21:47:22.478Z,67.73
2018-03-31T21:49:50.332Z,59.00
2018-03-31T21:52:17.496Z,88.53
2018-03-31T21:54:45.331Z,102.07
2018-03-31T21:57:13.140Z,97.27
2018-03-31T21:59:40.273Z,93.53
2018-03-31T22:02:08.100Z,99.87
2018-03-31T22:04:35.184Z,95.80
2018-03-31T22:07:02.244Z,89.13
2018-03-31T22:09:29.257Z,79.40
2018-03-31T22:11:56.322Z,82.37
2018-03-31T22:14:29.000Z,72.43
2018-03-31T22:16:56.030Z,66.83
2018-03-31T22:19:23.084Z,58.67
2018-03-31T22:21:50.125Z,55.60
2018-03-31T22:24:17.961Z,53.00
2018-03-31T22:26:45.004Z,55.90
2018-03-31T22:29:12.052Z,53.17
2018-03-31T22:31:39.093Z,54.17
2018-03-31T22:34:06.155Z,55.43
2018-03-31T22:36:33.180Z,60.67
2018-03-31T22:39:00.221Z,58.47
2018-03-31T22:41:27.233Z,57.10
2018-03-31T22:43:54.253Z,58.33
2018-03-31T22:46:21.285Z,63.63
2018-03-31T22:48:48.360Z,63.20
2018-03-31T22:51:15.562Z,68.10
2018-03-31T22:53:43.373Z,68.90
2018-03-31T22:56:10.412Z,67.43
2018-03-31T22:58:37.533Z,68.10
2018-03-31T23:01:04.619Z,72.50
2018-03-31T23:03:31.744Z,78.13
2018-03-31T23:05:59.808Z,74.03
2018-03-31T23:08:26.885Z,71.87
2018-03-31T23:10:54.807Z,74.03
2018-03-31T23:13:21.987Z,71.83
2018-03-31T23:15:49.055Z,70.50
2018-03-31T23:18:16.891Z,75.20
2018-03-31T23:20:44.780Z,73.77
2018-03-31T23:23:11.939Z,75.00
2018-03-31T23:25:38.983Z,75.47
2018-03-31T23:28:06.051Z,78.17
2018-03-31T23:30:33.084Z,78.10
2018-03-31T23:33:00.108Z,94.83
2018-03-31T23:35:27.119Z,96.77
2018-03-31T23:37:54.933Z,95.97
2018-03-31T23:40:21.958Z,98.20
2018-03-31T23:42:48.991Z,71.57
2018-03-31T23:45:16.817Z,64.77
2018-03-31T23:47:43.856Z,67.97
2018-03-31T23:50:10.920Z,63.77
2018-03-31T23:52:37.932Z,64.40
2018-03-31T23:55:04.946Z,61.93
2018-03-31T23:57:32.781Z,62.53
2018-03-31T23:59:59.954Z,58.50
